createdAt,value
2023-04-21T00:01:22.704Z,87.68
2023-04-21T00:03:51.265Z,87.86
2023-04-21T00:06:23.066Z,88.02
2023-04-21T00:08:51.943Z,87.39
2023-04-21T00:11:20.936Z,87.61
2023-04-21T00:13:49.318Z,88.03
2023-04-21T00:16:18.347Z,87.95
2023-04-21T00:18:48.189Z,88.14
2023-04-21T00:21:18.042Z,88.07
2023-04-21T00:23:47.660Z,87.73
2023-04-21T00:26:16.149Z,87.40
2023-04-21T00:28:45.960Z,87.41
2023-04-21T00:31:14.678Z,87.28
2023-04-21T00:33:43.355Z,87.22
2023-04-21T00:36:11.637Z,87.05
2023-04-21T00:38:40.741Z,86.85
2023-04-21T00:41:10.451Z,86.66
2023-04-21T00:44:03.721Z,86.18
2023-04-21T00:46:37.319Z,85.83
2023-04-21T00:49:08.098Z,85.56
2023-04-21T00:51:37.953Z,85.00
2023-04-21T00:54:08.905Z,84.64
2023-04-21T00:56:37.396Z,84.62
2023-04-21T00:59:05.876Z,84.63
2023-04-21T01:01:44.889Z,84.81
2023-04-21T01:04:13.828Z,85.11
2023-04-21T01:06:43.694Z,85.18
2023-04-21T01:09:12.826Z,85.50
2023-04-21T01:11:41.517Z,85.51
2023-04-21T01:14:10.098Z,85.55
2023-04-21T01:16:40.112Z,85.43
2023-04-21T01:19:09.117Z,85.42
2023-04-21T01:21:43.337Z,85.26
2023-04-21T01:24:12.127Z,85.32
2023-04-21T01:26:40.721Z,85.87
2023-04-21T01:29:09.818Z,86.13
2023-04-21T01:31:38.553Z,86.59
2023-04-21T01:34:09.973Z,86.90
2023-04-21T01:36:38.659Z,87.02
2023-04-21T01:39:07.584Z,87.51
2023-04-21T01:41:36.348Z,87.39
2023-04-21T01:44:06.065Z,87.39
2023-04-21T01:46:34.815Z,87.24
2023-04-21T01:49:04.579Z,87.36
2023-04-21T01:51:34.698Z,87.27
2023-04-21T01:54:03.080Z,87.35
2023-04-21T01:56:31.635Z,87.47
2023-04-21T01:59:01.509Z,87.37
2023-04-21T02:01:30.234Z,87.52
2023-04-21T02:03:58.860Z,87.56
2023-04-21T02:06:27.667Z,87.50
2023-04-21T02:08:55.951Z,87.62
2023-04-21T02:11:25.765Z,87.45
2023-04-21T02:13:55.082Z,87.41
2023-04-21T02:16:29.434Z,87.38
2023-04-21T02:18:58.387Z,87.33
2023-04-21T02:21:29.025Z,87.06
2023-04-21T02:23:57.514Z,86.98
2023-04-21T02:26:27.949Z,86.84
2023-04-21T02:28:56.335Z,86.46
2023-04-21T02:31:25.397Z,86.42
2023-04-21T02:33:54.949Z,86.39
2023-04-21T02:36:23.445Z,86.19
2023-04-21T02:38:52.329Z,86.27
2023-04-21T02:41:20.812Z,86.36
2023-04-21T02:43:52.479Z,86.17
2023-04-21T02:46:23.853Z,85.97
2023-04-21T02:48:52.638Z,86.00
2023-04-21T02:51:21.124Z,85.93
2023-04-21T02:53:50.114Z,85.85
2023-04-21T02:56:18.990Z,85.86
2023-04-21T02:58:47.387Z,85.69
2023-04-21T03:01:16.758Z,85.66
2023-04-21T03:03:45.604Z,85.44
2023-04-21T03:06:14.678Z,85.15
2023-04-21T03:08:43.284Z,85.37
2023-04-21T03:11:11.963Z,85.14
2023-04-21T03:13:40.655Z,85.07
2023-04-21T03:16:09.194Z,85.21
2023-04-21T03:18:38.039Z,85.13
2023-04-21T03:21:06.624Z,85.18
2023-04-21T03:23:35.121Z,85.24
2023-04-21T03:26:09.948Z,85.30
2023-04-21T03:28:38.750Z,85.02
2023-04-21T03:31:08.043Z,84.90
2023-04-21T03:33:36.637Z,84.74
2023-04-21T03:36:05.478Z,84.78
2023-04-21T03:38:34.324Z,84.78
2023-04-21T03:41:05.459Z,84.91
2023-04-21T03:43:33.855Z,84.51
2023-04-21T03:46:02.180Z,84.22
2023-04-21T03:48:32.157Z,83.43
2023-04-21T03:51:00.438Z,83.02
2023-04-21T03:53:28.926Z,82.74
2023-04-21T03:55:57.314Z,82.61
2023-04-21T03:58:26.325Z,82.61
2023-04-21T04:00:54.922Z,82.33
2023-04-21T04:03:26.545Z,82.37
2023-04-21T04:05:55.046Z,82.43
2023-04-21T04:08:24.973Z,82.49
2023-04-21T04:10:53.590Z,82.33
2023-04-21T04:13:22.773Z,82.42
2023-04-21T04:15:51.235Z,82.33
2023-04-21T04:18:20.246Z,82.01
2023-04-21T04:20:48.735Z,81.76
2023-04-21T04:23:17.013Z,81.55
2023-04-21T04:25:45.703Z,81.48
2023-04-21T04:28:15.835Z,81.12
2023-04-21T04:30:45.648Z,80.89
2023-04-21T04:33:14.438Z,80.73
2023-04-21T04:35:42.719Z,80.69
2023-04-21T04:38:11.411Z,80.20
2023-04-21T04:40:39.807Z,79.37
2023-04-21T04:43:10.674Z,79.75
2023-04-21T04:45:39.126Z,79.77
2023-04-21T04:48:07.603Z,79.37
2023-04-21T04:50:35.995Z,78.70
2023-04-21T04:53:04.475Z,77.13
2023-04-21T04:55:33.166Z,76.19
2023-04-21T04:58:02.201Z,74.75
2023-04-21T05:00:32.095Z,74.66
2023-04-21T05:03:01.343Z,74.26
2023-04-21T05:05:30.337Z,73.37
2023-04-21T05:08:20.198Z,72.49
2023-04-21T05:10:49.058Z,73.00
2023-04-21T05:13:18.108Z,72.79
2023-04-21T05:15:46.450Z,72.86
2023-04-21T05:18:15.043Z,72.78
2023-04-21T05:20:43.522Z,72.96
2023-04-21T05:23:12.116Z,72.48
2023-04-21T05:25:40.595Z,72.05
2023-04-21T05:28:09.286Z,71.11
2023-04-21T05:30:37.981Z,70.49
2023-04-21T05:33:06.550Z,70.05
2023-04-21T05:35:37.712Z,70.16
2023-04-21T05:38:07.031Z,70.03
2023-04-21T05:40:35.510Z,69.73
2023-04-21T05:43:03.993Z,69.80
2023-04-21T05:45:32.387Z,70.14
2023-04-21T05:48:00.771Z,69.73
2023-04-21T05:50:34.184Z,70.01
2023-04-21T05:53:02.763Z,69.77
2023-04-21T05:55:31.134Z,69.32
2023-04-21T05:57:59.724Z,68.85
2023-04-21T06:00:28.108Z,68.65
2023-04-21T06:02:57.491Z,68.92
2023-04-21T06:05:26.524Z,68.45
2023-04-21T06:07:55.106Z,68.63
2023-04-21T06:10:23.492Z,68.72
2023-04-21T06:12:51.867Z,68.25
2023-04-21T06:15:20.254Z,68.84
2023-04-21T06:17:54.258Z,68.80
2023-04-21T06:20:22.667Z,68.40
2023-04-21T06:22:51.251Z,67.99
2023-04-21T06:25:19.731Z,68.02
2023-04-21T06:27:48.324Z,68.63
2023-04-21T06:30:17.830Z,68.92
2023-04-21T06:32:47.920Z,68.85
2023-04-21T06:35:16.643Z,67.96
2023-04-21T06:37:45.435Z,68.32
2023-04-21T06:40:16.458Z,68.22
2023-04-21T06:42:45.074Z,68.07
2023-04-21T06:45:13.864Z,67.45
2023-04-21T06:47:42.510Z,66.39
2023-04-21T06:50:11.149Z,65.83
2023-04-21T06:52:39.748Z,66.08
2023-04-21T06:55:08.570Z,65.44
2023-04-21T06:57:36.915Z,64.30
2023-04-21T07:00:06.871Z,64.00
2023-04-21T07:02:35.610Z,63.73
2023-04-21T07:05:05.090Z,63.00
2023-04-21T07:07:34.039Z,63.06
2023-04-21T07:10:02.331Z,63.49
2023-04-21T07:12:30.602Z,63.64
2023-04-21T07:14:59.089Z,62.55
2023-04-21T07:17:27.617Z,61.47
2023-04-21T07:19:55.980Z,62.60
2023-04-21T07:22:24.351Z,61.57
2023-04-21T07:24:52.534Z,61.07
2023-04-21T07:27:21.322Z,61.00
2023-04-21T07:29:50.543Z,61.46
2023-04-21T07:32:19.316Z,61.24
2023-04-21T07:34:48.634Z,61.21
2023-04-21T07:37:18.338Z,60.61
2023-04-21T07:39:47.137Z,60.21
2023-04-21T07:42:15.631Z,59.22
2023-04-21T07:44:44.015Z,58.44
2023-04-21T07:47:12.797Z,58.35
2023-04-21T07:49:41.894Z,59.07
2023-04-21T07:52:10.507Z,60.12
2023-04-21T07:54:38.783Z,59.76
2023-04-21T07:57:07.656Z,60.30
2023-04-21T07:59:36.464Z,58.80
2023-04-21T08:02:05.692Z,57.38
2023-04-21T08:04:34.339Z,58.35
2023-04-21T08:07:03.843Z,58.29
2023-04-21T08:09:32.459Z,58.15
2023-04-21T08:12:02.795Z,57.27
2023-04-21T08:14:32.456Z,57.05
2023-04-21T08:17:01.153Z,55.57
2023-04-21T08:19:29.875Z,55.43
2023-04-21T08:21:59.005Z,56.13
2023-04-21T08:24:27.567Z,55.95
2023-04-21T08:26:55.979Z,55.02
2023-04-21T08:29:24.647Z,53.15
2023-04-21T08:31:53.254Z,52.79
2023-04-21T08:34:24.986Z,52.08
2023-04-21T08:36:55.037Z,51.22
2023-04-21T08:39:23.718Z,50.86
2023-04-21T08:41:53.025Z,50.76
2023-04-21T08:44:21.996Z,49.51
2023-04-21T08:46:51.591Z,49.32
2023-04-21T08:49:21.661Z,48.82
2023-04-21T08:51:50.336Z,49.17
2023-04-21T08:54:18.931Z,50.15
2023-04-21T08:56:49.517Z,48.84
2023-04-21T08:59:18.269Z,48.43
2023-04-21T09:02:06.056Z,49.42
2023-04-21T09:04:34.726Z,50.04
2023-04-21T09:07:03.578Z,50.53
2023-04-21T09:09:31.763Z,49.08
2023-04-21T09:12:00.179Z,49.81
2023-04-21T09:14:35.725Z,48.85
2023-04-21T09:17:05.588Z,49.29
2023-04-21T09:19:34.939Z,48.10
2023-04-21T09:22:04.315Z,48.33
2023-04-21T09:24:33.093Z,48.43
2023-04-21T09:27:04.873Z,47.49
2023-04-21T09:29:33.457Z,47.28
2023-04-21T09:32:02.050Z,47.24
2023-04-21T09:34:33.395Z,48.23
2023-04-21T09:37:03.837Z,47.48
2023-04-21T09:39:46.272Z,47.60
2023-04-21T09:42:29.703Z,47.62
2023-04-21T09:45:10.903Z,48.02
2023-04-21T09:47:53.787Z,47.93
2023-04-21T09:50:44.803Z,46.82
2023-04-21T09:53:17.223Z,47.94
2023-04-21T09:55:48.255Z,46.44
2023-04-21T09:58:19.840Z,45.75
2023-04-21T10:00:49.457Z,45.43
2023-04-21T10:03:20.378Z,45.43
2023-04-21T10:05:48.824Z,44.80
2023-04-21T10:08:17.578Z,44.33
2023-04-21T10:10:46.873Z,45.34
2023-04-21T10:13:16.794Z,44.82
2023-04-21T10:15:45.309Z,44.95
2023-04-21T10:18:18.716Z,45.91
2023-04-21T10:20:57.777Z,45.52
2023-04-21T10:23:30.696Z,45.61
2023-04-21T10:26:10.959Z,46.51
2023-04-21T10:28:44.860Z,47.00
2023-04-21T10:31:20.857Z,46.81
2023-04-21T10:34:13.482Z,46.45
2023-04-21T10:36:54.234Z,47.10
2023-04-21T10:39:29.973Z,47.88
2023-04-21T10:42:19.957Z,48.04
2023-04-21T10:44:59.194Z,49.01
2023-04-21T10:47:38.468Z,50.74
2023-04-21T10:50:28.196Z,51.78
2023-04-21T10:53:20.048Z,52.82
2023-04-21T10:55:55.652Z,54.29
2023-04-21T10:58:26.023Z,54.55
2023-04-21T11:00:56.213Z,53.92
2023-04-21T11:03:37.966Z,53.97
2023-04-21T11:06:20.053Z,54.08
2023-04-21T11:08:56.013Z,54.43
2023-04-21T11:11:24.966Z,54.34
2023-04-21T11:13:53.848Z,54.43
2023-04-21T11:16:22.912Z,54.74
2023-04-21T11:18:51.946Z,55.02
2023-04-21T11:21:21.777Z,55.33
2023-04-21T11:23:57.994Z,55.62
2023-04-21T11:26:45.541Z,56.03
2023-04-21T11:29:14.861Z,55.64
2023-04-21T11:31:46.761Z,55.40
2023-04-21T11:34:16.659Z,54.82
2023-04-21T11:36:46.600Z,54.72
2023-04-21T11:39:21.679Z,53.29
2023-04-21T11:41:52.232Z,53.24
2023-04-21T11:44:41.013Z,52.20
2023-04-21T11:47:21.454Z,50.69
2023-04-21T11:49:58.476Z,50.51
2023-04-21T11:52:30.004Z,50.84
2023-04-21T11:55:07.060Z,50.85
2023-04-21T11:57:36.698Z,50.49
2023-04-21T12:00:15.513Z,51.02
2023-04-21T12:02:44.447Z,50.83
2023-04-21T12:05:14.577Z,51.11
2023-04-21T12:07:45.718Z,49.03
2023-04-21T12:10:17.139Z,49.02
2023-04-21T12:12:46.291Z,48.75
2023-04-21T12:15:21.720Z,48.14
2023-04-21T12:17:54.960Z,48.17
2023-04-21T12:20:25.441Z,48.80
2023-04-21T12:22:53.672Z,48.81
2023-04-21T12:25:21.976Z,48.92
2023-04-21T12:27:52.705Z,48.71
2023-04-21T12:30:23.946Z,48.92
2023-04-21T12:32:54.522Z,49.43
2023-04-21T12:35:23.847Z,49.72
2023-04-21T12:37:52.590Z,50.07
2023-04-21T12:40:21.473Z,50.06
2023-04-21T12:42:49.852Z,50.28
2023-04-21T12:45:18.588Z,50.04
2023-04-21T12:47:47.367Z,50.64
2023-04-21T12:50:16.322Z,50.98
2023-04-21T12:52:44.711Z,51.26
2023-04-21T12:55:13.821Z,51.61
2023-04-21T12:57:42.030Z,51.36
2023-04-21T13:00:13.110Z,50.98
2023-04-21T13:02:42.310Z,51.04
2023-04-21T13:05:12.996Z,50.51
2023-04-21T13:07:41.794Z,50.31
2023-04-21T13:10:11.452Z,50.45
2023-04-21T13:12:41.637Z,50.40
2023-04-21T13:15:10.857Z,50.50
2023-04-21T13:17:39.283Z,50.29
2023-04-21T13:20:08.502Z,47.09
2023-04-21T13:22:36.899Z,47.33
2023-04-21T13:25:05.916Z,45.78
2023-04-21T13:27:34.381Z,44.31
2023-04-21T13:30:03.955Z,41.30
2023-04-21T13:32:32.834Z,39.58
2023-04-21T13:35:01.893Z,38.18
2023-04-21T13:37:30.584Z,35.22
2023-04-21T13:39:58.990Z,34.23
2023-04-21T13:42:29.241Z,32.99
2023-04-21T13:44:58.697Z,30.87
2023-04-21T13:47:27.759Z,31.31
2023-04-21T13:49:56.415Z,30.79
2023-04-21T13:52:25.151Z,31.29
2023-04-21T13:54:54.491Z,31.98
2023-04-21T13:57:23.086Z,33.59
2023-04-21T13:59:51.611Z,34.85
2023-04-21T14:02:23.480Z,35.97
2023-04-21T14:04:53.616Z,37.01
2023-04-21T14:07:23.931Z,37.23
2023-04-21T14:09:53.505Z,37.70
2023-04-21T14:12:21.994Z,38.24
2023-04-21T14:14:50.483Z,38.86
2023-04-21T14:17:18.981Z,39.92
2023-04-21T14:19:47.600Z,41.71
2023-04-21T14:22:16.155Z,44.47
2023-04-21T14:24:44.751Z,46.12
2023-04-21T14:27:13.028Z,47.88
2023-04-21T14:29:41.712Z,50.41
2023-04-21T14:32:10.537Z,51.86
2023-04-21T14:34:39.207Z,53.01
2023-04-21T14:37:07.677Z,53.64
2023-04-21T14:39:36.535Z,54.92
2023-04-21T14:42:05.063Z,55.28
2023-04-21T14:44:34.579Z,55.68
2023-04-21T14:47:09.738Z,55.95
2023-04-21T14:49:39.626Z,56.23
2023-04-21T14:52:08.291Z,56.91
2023-04-21T14:54:36.583Z,57.35
2023-04-21T14:57:18.900Z,57.62
2023-04-21T14:59:51.604Z,57.73
2023-04-21T15:02:21.907Z,58.16
2023-04-21T15:04:51.704Z,58.65
2023-04-21T15:07:24.334Z,59.05
2023-04-21T15:09:53.699Z,58.73
2023-04-21T15:12:22.127Z,59.50
2023-04-21T15:14:51.024Z,60.11
2023-04-21T15:17:19.491Z,60.27
2023-04-21T15:19:48.011Z,61.02
2023-04-21T15:22:16.463Z,59.56
2023-04-21T15:24:45.745Z,57.96
2023-04-21T15:27:14.673Z,57.29
2023-04-21T15:29:43.579Z,57.06
2023-04-21T15:32:12.070Z,57.13
2023-04-21T15:34:40.764Z,57.26
2023-04-21T15:37:12.868Z,57.87
2023-04-21T15:39:41.747Z,58.07
2023-04-21T15:42:10.298Z,58.49
2023-04-21T15:44:39.837Z,59.31
2023-04-21T15:47:08.701Z,60.07
2023-04-21T15:49:37.517Z,60.82
2023-04-21T15:52:07.273Z,61.65
2023-04-21T15:54:36.091Z,61.83
2023-04-21T15:57:05.774Z,62.29
2023-04-21T15:59:34.110Z,63.22
2023-04-21T16:02:02.548Z,64.36
2023-04-21T16:04:31.773Z,64.36
2023-04-21T16:07:00.484Z,63.52
2023-04-21T16:09:28.864Z,62.76
2023-04-21T16:11:57.601Z,62.21
2023-04-21T16:14:26.207Z,61.52
2023-04-21T16:16:54.600Z,61.23
2023-04-21T16:19:23.398Z,61.55
2023-04-21T16:21:51.683Z,61.72
2023-04-21T16:24:20.036Z,61.50
2023-04-21T16:26:48.476Z,61.46
2023-04-21T16:29:17.004Z,61.75
2023-04-21T16:31:46.775Z,62.34
2023-04-21T16:34:16.525Z,62.75
2023-04-21T16:36:44.999Z,63.08
2023-04-21T16:39:16.221Z,63.41
2023-04-21T16:41:44.931Z,63.86
2023-04-21T16:44:13.287Z,64.63
2023-04-21T16:46:42.088Z,64.91
2023-04-21T16:49:12.644Z,65.31
2023-04-21T16:51:44.863Z,66.30
2023-04-21T16:54:14.016Z,66.95
2023-04-21T16:56:42.703Z,67.67
2023-04-21T16:59:11.516Z,68.94
2023-04-21T17:01:40.077Z,70.12
2023-04-21T17:04:14.012Z,69.24
2023-04-21T17:06:42.796Z,68.81
2023-04-21T17:09:11.275Z,67.15
2023-04-21T17:11:40.248Z,65.92
2023-04-21T17:14:08.763Z,65.04
2023-04-21T17:16:37.196Z,64.91
2023-04-21T17:19:06.147Z,64.37
2023-04-21T17:21:34.634Z,62.72
2023-04-21T17:24:03.116Z,62.66
2023-04-21T17:26:31.401Z,62.89
2023-04-21T17:29:00.116Z,63.17
2023-04-21T17:31:30.691Z,63.01
2023-04-21T17:33:59.925Z,63.09
2023-04-21T17:36:31.501Z,62.87
2023-04-21T17:39:00.384Z,63.03
2023-04-21T17:41:28.869Z,63.07
2023-04-21T17:43:57.154Z,63.20
2023-04-21T17:46:26.549Z,63.12
2023-04-21T17:48:55.314Z,63.08
2023-04-21T17:51:24.872Z,62.91
2023-04-21T17:53:53.321Z,62.83
2023-04-21T17:56:22.656Z,63.08
2023-04-21T17:58:51.665Z,63.08
2023-04-21T18:01:21.104Z,63.22
2023-04-21T18:03:49.650Z,63.14
2023-04-21T18:06:18.034Z,63.61
2023-04-21T18:08:46.833Z,63.74
2023-04-21T18:11:15.628Z,64.01
2023-04-21T18:13:44.328Z,64.15
2023-04-21T18:16:12.834Z,64.64
2023-04-21T18:18:41.913Z,64.64
2023-04-21T18:21:10.202Z,65.15
2023-04-21T18:23:38.446Z,65.77
2023-04-21T18:26:08.598Z,66.28
2023-04-21T18:28:36.991Z,66.80
2023-04-21T18:31:07.076Z,67.75
2023-04-21T18:33:35.597Z,67.83
2023-04-21T18:36:04.278Z,68.12
2023-04-21T18:38:33.183Z,68.67
2023-04-21T18:41:01.768Z,68.82
2023-04-21T18:43:30.048Z,69.06
2023-04-21T18:45:58.743Z,69.29
2023-04-21T18:48:27.125Z,69.73
2023-04-21T18:50:55.612Z,70.10
2023-04-21T18:53:23.891Z,70.22
2023-04-21T18:55:52.172Z,70.35
2023-04-21T18:58:20.469Z,70.91
2023-04-21T19:00:48.958Z,70.85
2023-04-21T19:03:18.893Z,70.96
2023-04-21T19:05:47.444Z,71.17
2023-04-21T19:10:44.942Z,71.45
2023-04-21T19:13:13.543Z,71.22
2023-04-21T19:15:42.125Z,71.21
2023-04-21T19:18:10.643Z,71.50
2023-04-21T19:20:39.203Z,72.02
2023-04-21T19:23:07.578Z,71.63
2023-04-21T19:25:36.597Z,71.50
2023-04-21T19:28:06.710Z,71.42
2023-04-21T19:30:35.499Z,71.30
2023-04-21T19:33:05.522Z,71.42
2023-04-21T19:35:34.107Z,71.59
2023-04-21T19:38:02.488Z,71.59
2023-04-21T19:40:31.055Z,71.76
2023-04-21T19:42:59.259Z,71.85
2023-04-21T19:45:27.644Z,71.94
2023-04-21T19:47:56.564Z,71.87
2023-04-21T19:50:25.236Z,72.04
2023-04-21T19:52:53.629Z,72.47
2023-04-21T19:55:22.660Z,72.63
2023-04-21T19:57:51.930Z,72.68
2023-04-21T20:00:20.836Z,72.71
2023-04-21T20:02:49.432Z,72.83
2023-04-21T20:05:18.127Z,73.00
2023-04-21T20:07:47.100Z,73.11
2023-04-21T20:10:15.498Z,73.58
2023-04-21T20:12:43.765Z,74.05
2023-04-21T20:15:13.396Z,74.04
2023-04-21T20:17:42.191Z,73.93
2023-04-21T20:20:11.331Z,73.76
2023-04-21T20:22:40.065Z,74.34
2023-04-21T20:25:08.645Z,75.26
2023-04-21T20:27:37.236Z,75.22
2023-04-21T20:30:07.994Z,74.79
2023-04-21T20:32:36.878Z,74.85
2023-04-21T20:35:07.583Z,74.83
2023-04-21T20:37:36.211Z,75.02
2023-04-21T20:40:08.439Z,74.75
2023-04-21T20:42:37.577Z,74.47
2023-04-21T20:45:06.998Z,74.41
2023-04-21T20:47:35.690Z,74.48
2023-04-21T20:50:05.071Z,74.32
2023-04-21T20:52:33.578Z,74.31
2023-04-21T20:55:01.968Z,74.06
2023-04-21T20:57:30.551Z,73.87
2023-04-21T20:59:58.929Z,73.94
2023-04-21T21:02:27.491Z,74.19
2023-04-21T21:04:56.415Z,74.85
2023-04-21T21:07:24.810Z,74.81
2023-04-21T21:09:53.196Z,75.05
2023-04-21T21:12:21.771Z,75.36
2023-04-21T21:14:50.898Z,75.57
2023-04-21T21:17:19.772Z,75.84
2023-04-21T21:19:49.501Z,75.77
2023-04-21T21:22:17.765Z,76.23
2023-04-21T21:24:46.776Z,76.36
2023-04-21T21:27:15.251Z,76.26
2023-04-21T21:29:44.657Z,76.35
2023-04-21T21:32:13.148Z,76.23
2023-04-21T21:34:41.532Z,76.26
2023-04-21T21:37:10.020Z,76.26
2023-04-21T21:39:38.553Z,76.34
2023-04-21T21:42:07.196Z,76.20
2023-04-21T21:44:36.605Z,76.15
2023-04-21T21:47:05.690Z,76.20
2023-04-21T21:49:34.290Z,76.31
2023-04-21T21:52:02.882Z,76.59
2023-04-21T21:54:31.708Z,76.71
2023-04-21T21:57:00.266Z,76.86
2023-04-21T21:59:28.650Z,76.69
2023-04-21T22:01:56.998Z,76.74
2023-04-21T22:04:25.341Z,76.87
2023-04-21T22:06:53.905Z,76.75
2023-04-21T22:09:22.398Z,76.65
2023-04-21T22:11:50.783Z,76.61
2023-04-21T22:14:23.445Z,76.30
2023-04-21T22:16:53.428Z,76.27
2023-04-21T22:19:22.045Z,76.30
2023-04-21T22:21:50.771Z,76.16
2023-04-21T22:24:19.350Z,76.12
2023-04-21T22:26:48.257Z,76.03
2023-04-21T22:29:17.150Z,75.89
2023-04-21T22:31:45.636Z,75.69
2023-04-21T22:34:16.849Z,75.82
2023-04-21T22:36:45.856Z,75.70
2023-04-21T22:39:14.374Z,75.65
2023-04-21T22:41:43.263Z,75.74
2023-04-21T22:44:13.569Z,75.98
2023-04-21T22:46:43.095Z,76.03
2023-04-21T22:49:12.097Z,76.13
2023-04-21T22:51:40.593Z,76.35
2023-04-21T22:54:09.073Z,76.43
2023-04-21T22:56:37.875Z,76.17
2023-04-21T22:59:06.665Z,76.13
2023-04-21T23:01:34.942Z,76.13
2023-04-21T23:04:03.512Z,76.13
2023-04-21T23:06:33.073Z,76.30
2023-04-21T23:09:01.554Z,76.35
2023-04-21T23:11:30.018Z,76.08
2023-04-21T23:13:58.407Z,75.63
2023-04-21T23:16:27.258Z,75.60
2023-04-21T23:18:56.101Z,75.16
2023-04-21T23:21:24.690Z,74.80
2023-04-21T23:23:53.067Z,74.45
2023-04-21T23:26:21.979Z,74.62
2023-04-21T23:28:50.456Z,74.29
2023-04-21T23:31:19.482Z,74.24
2023-04-21T23:33:48.349Z,74.26
2023-04-21T23:36:16.841Z,74.20
2023-04-21T23:38:45.415Z,74.13
2023-04-21T23:41:13.806Z,74.14
2023-04-21T23:43:42.190Z,73.98
2023-04-21T23:46:10.825Z,74.25
2023-04-21T23:48:39.366Z,74.31
2023-04-21T23:51:07.941Z,74.31
2023-04-21T23:53:36.555Z,74.36
2023-04-21T23:56:05.133Z,74.40
2023-04-21T23:58:36.484Z,74.33
